Terminal Aerodrome Forecast
Issued by NWS Tallahassee, FL

Home | Current Version | Previous Version | Text Only | Print | Product List | Glossary On
Versions: 1 2 3 4 5 6 7 8 9 10 11 12 13 14 15 16 17 18 19 20 21
223
FTUS42 KTAE 211324 AAA
TAFTLH
TAF AMD
KTLH 211324Z 2113/2212 19012G18KT P6SM SCT007 OVC019
     FM211900 20014G21KT 6SM TSRA OVC025CB=

USA.gov is the U.S. government's official web portal to all federal, state and local government web resources and services.